Flight Track Log - Related Links

Times and Time Zones

All times are in EDT time to prevent confusion due to time zone crossing. See the EJA982 flight status page for this flight to view local times or setup timezone preferences in your user account.

Time Position Orientation Groundspeed Altitude Reporting Facility
EDT Latitude Longitude Course Direction KTS MPH feet Rate Location/Type
Mon 04:03:18 PM 38.1917 -122.2958 65° Northeast 191 220 1,200  Level Oakland Center
Mon 04:04:19 PM 38.1967 -122.3556 276° West 222 255 3,700 1,377 Climbing Oakland Center
Mon 04:05:20 PM 38.2572 -122.4031 328° Northwest 276 318 4,000 1,610 Climbing Oakland Center
Mon 04:06:22 PM 38.3342 -122.4053 359° North 277 319 7,000 2,341 Climbing Oakland Center
Mon 04:07:00 PM 38.7062 -121.8240 61° Northeast  Level FlightAware Approximate
Mon 04:07:23 PM 38.4100 -122.3950 North 275 316 8,800  Level Oakland Center
Mon 04:08:00 PM 38.7631 -121.6642 65° Northeast  Level FlightAware Approximate
Mon 04:08:24 PM 38.4922 -122.3728 12° North 310 357 10,700  Level Oakland Center
Mon 04:09:26 PM 38.5422 -122.2614 60° Northeast 365 420 12,300 1,561 Climbing Oakland Center
Mon 04:10:27 PM 38.5922 -122.1378 63° Northeast 388 447 13,900 1,805 Climbing Oakland Center
Mon 04:11:29 PM 38.6531 -121.9814 63° Northeast 406 467 16,000 1,805 Climbing Oakland Center
Mon 04:12:30 PM 38.7008 -121.8558 64° Northeast 416 479 17,600 1,239 Climbing Oakland Center
Mon 04:14:00 PM 38.7944 -121.6225 61° Northeast  Level FlightAware Approximate
Mon 04:14:33 PM 38.8158 -121.5767 61° Northeast 441 507 19,800  Level Oakland Center
Mon 04:15:34 PM 38.8800 -121.4375 59° Northeast 446 513 21,200 1,525 Climbing Oakland Center
Mon 04:16:35 PM 38.9422 -121.3000 60° Northeast 442 509 22,900 1,561 Climbing Oakland Center
Mon 04:17:37 PM 39.0058 -121.1600 60° Northeast 446 513 24,400 1,415 Climbing Oakland Center
Mon 04:18:38 PM 39.0706 -121.0142 60° Northeast 461 531 25,800 1,426 Climbing Oakland Center
Mon 04:19:39 PM 39.1367 -120.8675 60° Northeast 468 539 27,300 1,610 Climbing Oakland Center
Mon 04:20:41 PM 39.2161 -120.6886 60° Northeast 476 548 29,100 1,561 Climbing Oakland Center
Mon 04:21:42 PM 39.2842 -120.5367 60° Northeast 484 557 30,500 1,426 Climbing Oakland Center
Mon 04:22:43 PM 39.3517 -120.3828 60° Northeast 491 565 32,000 1,328 Climbing Oakland Center
Mon 04:23:44 PM 39.4197 -120.2269 60° Northeast 497 572 33,200 1,122 Climbing Oakland Center
Mon 04:24:46 PM 39.4925 -120.0678 59° Northeast 517 595 34,300 927 Climbing Oakland Center
Mon 04:25:47 PM 39.5647 -119.9036 60° Northeast 523 602 35,100 639 Climbing Oakland Center
Mon 04:26:48 PM 39.6386 -119.7314 61° Northeast 539 620 35,600 634 Climbing Oakland Center
Mon 04:27:50 PM 39.7131 -119.5561 61° Northeast 549 632 36,400 683 Climbing Oakland Center
Mon 04:28:51 PM 39.7883 -119.3794 61° Northeast 555 639 37,000 492 Climbing Oakland Center
Mon 04:29:52 PM 39.8644 -119.1989 61° Northeast 563 648 37,400 683 Climbing Oakland Center
Mon 04:30:54 PM 39.9403 -119.0192 61° Northeast 561 646 38,400 976 Climbing Oakland Center
Mon 04:31:55 PM 40.0136 -118.8428 61° Northeast 553 636 39,400 1,082 Climbing Oakland Center
Mon 04:32:56 PM 40.1008 -118.6375 61° Northeast 537 618 40,600 780 Climbing Oakland Center
Mon 04:33:58 PM 40.1597 -118.4589 67° East 534 615 41,000 195 Climbing Oakland Center
Mon 04:34:59 PM 40.2089 -118.2728 71° East 538 619 41,000  Level Oakland Center
Mon 04:36:01 PM 40.2708 -118.0872 66° East 552 635 41,000  Level Oakland Center
Mon 04:37:02 PM 40.3394 -117.9178 62° Northeast 558 642 41,000  Level Oakland Center
Mon 04:38:03 PM 40.4208 -117.7167 62° Northeast 558 642 41,000  Level Oakland Center
Mon 04:39:05 PM 40.4906 -117.5422 62° Northeast 561 646 41,000  Level Oakland Center
Mon 04:40:06 PM 40.5594 -117.3669 63° Northeast 561 646 41,000  Level Oakland Center
Mon 04:41:07 PM 40.6417 -117.1614 62° Northeast 562 647 41,000  Level Oakland Center
Mon 04:42:24 PM 40.7333 -116.9236 63° Northeast 562 647 41,000  Level Salt Lake Center
Mon 04:43:25 PM 40.8017 -116.7467 63° Northeast 561 646 41,000  Level Salt Lake Center
Mon 04:44:27 PM 40.8683 -116.5725 63° Northeast 554 638 41,000  Level Salt Lake Center
Mon 04:45:29 PM 40.9456 -116.3742 63° Northeast 543 625 41,000  Level Salt Lake Center
Mon 04:46:30 PM 41.0094 -116.2056 63° Northeast 536 617 41,000  Level Salt Lake Center
Mon 04:47:32 PM 41.0728 -116.0361 64° Northeast 537 618 41,000  Level Salt Lake Center
Mon 04:48:34 PM 41.1469 -115.8394 63° Northeast 535 616 41,000  Level Salt Lake Center
Mon 04:49:35 PM 41.2106 -115.6689 64° Northeast 535 616 41,000  Level Salt Lake Center
Mon 04:50:37 PM 41.2833 -115.4703 64° Northeast 535 616 41,000  Level Salt Lake Center
Mon 04:51:39 PM 41.3481 -115.2967 64° Northeast 543 625 41,000  Level Salt Lake Center
Mon 04:52:40 PM 41.4428 -115.1072 56° Northeast 552 635 41,000  Level Salt Lake Center
Mon 04:53:42 PM 41.5369 -114.9589 50° Northeast 550 633 41,000  Level Salt Lake Center
Mon 04:54:44 PM 41.6286 -114.8100 50° Northeast 543 625 41,000  Level Salt Lake Center
Mon 04:55:45 PM 41.7356 -114.6386 50° Northeast 539 620 41,000  Level Salt Lake Center
Mon 04:56:47 PM 41.8347 -114.4764 51° Northeast 538 619 41,000  Level Salt Lake Center
Mon 04:57:49 PM 41.9314 -114.3197 50° Northeast 544 626 41,000  Level Salt Lake Center
Mon 04:58:50 PM 42.0283 -114.1617 50° Northeast 548 631 41,000  Level Salt Lake Center
Mon 04:59:52 PM 42.1242 -114.0022 51° Northeast 548 631 41,000  Level Salt Lake Center
Mon 05:00:54 PM 42.2211 -113.8417 51° Northeast 551 634 41,000  Level Salt Lake Center
Mon 05:01:55 PM 42.3164 -113.6825 51° Northeast 547 629 41,000  Level Salt Lake Center
Mon 05:02:57 PM 42.4325 -113.4897 51° Northeast 551 634 41,000  Level Salt Lake Center
Mon 05:03:59 PM 42.5250 -113.3292 52° Northeast 545 627 41,000 341 Level Salt Lake Center
Mon 05:05:00 PM 42.6178 -113.1750 51° Northeast 532 612 41,700 683 Climbing Salt Lake Center
Mon 05:06:02 PM 42.7108 -113.0169 51° Northeast 531 611 42,400 629 Climbing Salt Lake Center
Mon 05:07:04 PM 42.7986 -112.8689 51° Northeast 527 606 43,000 293 Climbing Salt Lake Center
Mon 05:08:05 PM 42.8997 -112.6933 52° Northeast 528 608 43,000  Level Salt Lake Center
Mon 05:09:07 PM 42.9881 -112.5394 52° Northeast 536 617 43,000  Level Salt Lake Center
Mon 05:10:09 PM 43.0919 -112.3594 52° Northeast 540 621 43,000  Level Salt Lake Center
Mon 05:11:10 PM 43.1786 -112.2067 52° Northeast 535 616 43,000  Level Salt Lake Center
Mon 05:12:12 PM 43.2781 -112.0311 52° Northeast 525 604 43,000  Level Salt Lake Center
Mon 05:13:14 PM 43.3636 -111.8831 51° Northeast 520 598 43,000  Level Salt Lake Center
Mon 05:14:15 PM 43.4467 -111.7322 53° Northeast 519 597 43,000  Level Salt Lake Center
Mon 05:15:17 PM 43.5433 -111.5611 52° Northeast 511 588 43,000  Level Salt Lake Center
Mon 05:16:19 PM 43.6250 -111.4139 53° Northeast 507 583 43,000  Level Salt Lake Center
Mon 05:17:21 PM 43.7197 -111.2433 52° Northeast 505 581 43,000  Level Salt Lake Center
Mon 05:18:22 PM 43.7994 -111.0975 53° Northeast 502 578 43,000  Level Salt Lake Center
Mon 05:19:24 PM 43.8967 -110.9203 53° Northeast 515 593 43,000  Level Salt Lake Center
Mon 05:20:26 PM 43.9797 -110.7675 53° Northeast 520 598 43,000  Level Salt Lake Center
Mon 05:21:28 PM 44.0761 -110.5875 53° Northeast 523 602 43,000  Level Salt Lake Center
Mon 05:22:29 PM 44.1608 -110.4306 53° Northeast 529 609 43,000  Level Salt Lake Center
Mon 05:23:31 PM 44.2594 -110.2483 53° Northeast 530 610 43,000  Level Salt Lake Center
Mon 05:24:33 PM 44.3422 -110.0900 54° Northeast 529 609 43,000  Level Salt Lake Center
Mon 05:25:35 PM 44.4400 -109.9064 53° Northeast 528 608 43,000  Level Salt Lake Center
Mon 05:26:37 PM 44.5222 -109.7483 54° Northeast 526 605 43,000  Level Salt Lake Center
Mon 05:27:39 PM 44.6047 -109.5894 54° Northeast 527 606 43,000  Level Salt Lake Center
Mon 05:28:41 PM 44.7008 -109.4036 54° Northeast 527 606 43,000  Level Salt Lake Center
Mon 05:29:42 PM 44.7839 -109.2422 54° Northeast 531 611 43,000  Level Salt Lake Center
Mon 05:30:44 PM 44.8806 -109.0544 54° Northeast 531 611 43,000  Level Salt Lake Center
Mon 05:31:46 PM 44.9628 -108.8944 54° Northeast 528 608 43,000  Level Salt Lake Center
Mon 05:32:48 PM 45.0564 -108.7083 55° Northeast 522 601 43,000  Level Salt Lake Center
Mon 05:33:50 PM 45.1456 -108.5325 54° Northeast 517 595 43,000  Level Salt Lake Center
Mon 05:34:52 PM 45.2267 -108.3689 55° Northeast 519 597 43,000  Level Salt Lake Center
Mon 05:35:54 PM 45.3147 -108.1908 55° Northeast 517 595 43,000  Level Salt Lake Center
Mon 05:36:56 PM 45.3964 -108.0269 55° Northeast 516 594 43,000  Level Salt Lake Center
Mon 05:37:58 PM 45.4847 -107.8469 55° Northeast 517 595 43,000  Level Salt Lake Center
Mon 05:39:00 PM 45.5664 -107.6781 55° Northeast 522 601 43,000  Level Salt Lake Center
Mon 05:40:02 PM 45.6542 -107.4986 55° Northeast 517 595 43,000  Level Salt Lake Center
Mon 05:41:04 PM 45.7344 -107.3319 55° Northeast 516 594 43,000  Level Salt Lake Center
Mon 05:42:06 PM 45.8178 -107.1578 55° Northeast 513 590 43,000  Level Salt Lake Center
Mon 05:43:08 PM 45.8944 -106.9931 56° Northeast 514 592 43,000  Level Salt Lake Center
Mon 05:44:10 PM 45.9717 -106.8222 57° Northeast 513 590 43,000  Level Salt Lake Center
Mon 05:45:11 PM 46.0503 -106.6542 56° Northeast 511 588 43,000  Level Salt Lake Center
Mon 05:47:15 PM 46.2239 -106.2881 55° Northeast 506 582 43,000  Level Salt Lake Center
Mon 05:48:17 PM 46.3028 -106.1203 56° Northeast 506 582 43,000  Level Salt Lake Center
Mon 05:49:19 PM 46.3800 -105.9469 57° Northeast 509 586 43,000  Level Salt Lake Center
Mon 05:50:21 PM 46.4150 -105.7453 76° East 517 595 43,000  Level Salt Lake Center
Mon 05:51:23 PM 46.4469 -105.5411 77° East 521 600 43,000  Level Salt Lake Center
Mon 05:52:25 PM 46.4803 -105.3392 76° East 520 598 43,000  Level Salt Lake Center
Mon 05:53:27 PM 46.5194 -105.0961 77° East 519 597 43,000  Level Salt Lake Center
Mon 05:54:29 PM 46.5514 -104.8911 77° East 519 597 43,000  Level Salt Lake Center
Mon 05:55:31 PM 46.5831 -104.6858 77° East 521 600 43,000  Level Salt Lake Center
Mon 05:56:33 PM 46.6147 -104.4814 77° East 522 601 43,000  Level Salt Lake Center
Mon 05:57:34 PM 46.6450 -104.2744 78° East 523 602 43,000  Level Salt Lake Center
Mon 05:58:36 PM 46.6817 -104.0272 78° East 524 603 43,000  Level Salt Lake Center
Mon 05:59:38 PM 46.7125 -103.8206 78° East 525 604 43,000  Level Salt Lake Center
Mon 06:00:40 PM 46.7422 -103.6139 78° East 525 604 43,000  Level Salt Lake Center
Mon 06:01:42 PM 46.7719 -103.4089 78° East 524 603 43,000  Level Salt Lake Center
Mon 06:02:21 PM 46.7908 -103.2900 77° East 519 597 43,000  Level Minneapolis Center
Mon 06:03:23 PM 46.8247 -103.0439 79° East 519 597 43,000  Level Minneapolis Center
Mon 06:04:25 PM 46.8528 -102.8375 79° East 522 601 43,000  Level Minneapolis Center
Mon 06:05:26 PM 46.8661 -102.6244 85° East 529 609 43,000  Level Minneapolis Center
Mon 06:06:28 PM 46.8642 -102.4178 91° East 520 598 43,000  Level Minneapolis Center
Mon 06:07:30 PM 46.8661 -102.2089 89° East 518 596 43,000  Level Minneapolis Center
Mon 06:08:32 PM 46.8667 -102.0000 90° East 518 596 43,000  Level Minneapolis Center
Mon 06:09:33 PM 46.8656 -101.8336 90° East 516 594 43,000  Level Minneapolis Center
Mon 06:10:35 PM 46.8644 -101.5672 90° East 515 593 43,000  Level Minneapolis Center
Mon 06:11:37 PM 46.8631 -101.4006 91° East 514 592 43,000  Level Minneapolis Center
Mon 06:12:39 PM 46.8619 -101.1089 90° East 513 590 43,000  Level Minneapolis Center
Mon 06:13:40 PM 46.8603 -100.8994 91° East 514 592 43,000  Level Minneapolis Center
Mon 06:14:42 PM 46.8592 -100.6878 90° East 518 596 43,000  Level Minneapolis Center
Mon 06:15:44 PM 46.8564 -100.5036 91° East 516 594 43,000  Level Minneapolis Center
Mon 06:16:46 PM 46.8522 -100.2542 91° East 514 592 43,000  Level Minneapolis Center
Mon 06:17:47 PM 46.8497 -100.0456 91° East 516 594 43,000  Level Minneapolis Center
Mon 06:18:49 PM 46.8456 -99.8369 92° East 516 594 43,000  Level Minneapolis Center
Mon 06:19:51 PM 46.8417 -99.6278 91° East 516 594 43,000  Level Minneapolis Center
Mon 06:20:53 PM 46.8369 -99.4178 92° East 520 598 43,000  Level Minneapolis Center
Mon 06:21:54 PM 46.8336 -99.2508 92° East 518 596 43,000  Level Minneapolis Center
Mon 06:22:56 PM 46.8267 -98.9583 92° East 518 596 43,000  Level Minneapolis Center
Mon 06:23:58 PM 46.8211 -98.7489 92° East 520 598 43,000  Level Minneapolis Center
Mon 06:25:00 PM 46.8144 -98.5403 93° East 519 597 43,000  Level Minneapolis Center
Mon 06:26:02 PM 46.8086 -98.3311 92° East 519 597 43,000  Level Minneapolis Center
Mon 06:27:04 PM 46.8022 -98.1206 92° East 520 598 43,000  Level Minneapolis Center
Mon 06:28:06 PM 46.7958 -97.9092 92° East 525 604 43,000  Level Minneapolis Center
Mon 06:29:07 PM 46.7864 -97.6592 93° East 521 600 43,000  Level Minneapolis Center
Mon 06:30:09 PM 46.7781 -97.4506 93° East 521 600 43,000  Level Minneapolis Center
Mon 06:31:11 PM 46.7703 -97.2386 93° East 524 603 43,000  Level Minneapolis Center
Mon 06:32:13 PM 46.7608 -97.0278 94° East 525 604 43,000  Level Minneapolis Center
Mon 06:33:15 PM 46.7533 -96.8189 93° East 522 601 43,000  Level Minneapolis Center
Mon 06:34:17 PM 46.7611 -96.5636 87° East 527 606 43,000  Level Minneapolis Center
Mon 06:35:19 PM 46.7669 -96.3531 88° East 524 603 43,000  Level Minneapolis Center
Mon 06:36:21 PM 46.7728 -96.1419 88° East 524 603 43,000  Level Minneapolis Center
Mon 06:37:22 PM 46.7781 -95.9325 88° East 520 598 43,000  Level Minneapolis Center
Mon 06:38:24 PM 46.7833 -95.7086 88° East 512 589 43,000  Level Minneapolis Center
Mon 06:39:26 PM 46.7864 -95.5028 89° East 510 587 43,000  Level Minneapolis Center
Mon 06:40:28 PM 46.7908 -95.2978 88° East 509 586 43,000  Level Minneapolis Center
Mon 06:41:30 PM 46.7944 -95.0939 88° East 506 582 43,000  Level Minneapolis Center
Mon 06:42:32 PM 46.7975 -94.8892 89° East 507 583 43,000  Level Minneapolis Center
Mon 06:43:34 PM 46.8006 -94.6467 89° East 503 579 43,000  Level Minneapolis Center
Mon 06:44:36 PM 46.8019 -94.4411 89° East 506 582 43,000  Level Minneapolis Center
Mon 06:45:38 PM 46.8036 -94.2364 89° East 508 585 43,000  Level Minneapolis Center
Mon 06:46:40 PM 46.8044 -94.0297 90° East 512 589 43,000  Level Minneapolis Center
Mon 06:47:42 PM 46.8058 -93.8231 89° East 512 589 43,000  Level Minneapolis Center
Mon 06:48:44 PM 46.8072 -93.6164 89° East 514 592 43,000  Level Minneapolis Center
Mon 06:49:45 PM 46.8069 -93.4108 90° East 512 589 43,000  Level Minneapolis Center
Mon 06:50:47 PM 46.8058 -93.1622 90° East 516 594 43,000  Level Minneapolis Center
Mon 06:51:49 PM 46.8058 -92.9508 90° East 523 602 43,000  Level Minneapolis Center
Mon 06:53:03 PM 46.8053 -92.7428 90° East 522 601 43,000  Level Minneapolis Center
Mon 06:54:06 PM 46.8039 -92.4936 90° East 518 596 43,000  Level Minneapolis Center
Mon 06:55:20 PM 46.8017 -92.2458 91° East 514 592 43,000  Level Minneapolis Center
Mon 06:56:22 PM 46.7981 -91.9944 91° East 518 596 43,000  Level Minneapolis Center
Mon 06:57:24 PM 46.7925 -91.7906 92° East 512 589 43,000  Level Minneapolis Center
Mon 06:58:26 PM 46.7886 -91.5794 91° East 519 597 43,000  Level Minneapolis Center
Mon 06:59:28 PM 46.7856 -91.3694 91° East 521 600 43,000  Level Minneapolis Center
Mon 07:00:31 PM 46.7811 -91.1394 92° East 521 600 43,000  Level Minneapolis Center
Mon 07:01:33 PM 46.7753 -90.9286 92° East 521 600 43,000  Level Minneapolis Center
Mon 07:02:35 PM 46.7694 -90.6744 92° East 522 601 43,000  Level Minneapolis Center
Mon 07:03:37 PM 46.7639 -90.4614 92° East 524 603 43,000  Level Minneapolis Center
Mon 07:04:39 PM 46.7572 -90.2481 93° East 525 604 43,000  Level Minneapolis Center
Mon 07:05:41 PM 46.7497 -90.0342 93° East 526 605 43,000  Level Minneapolis Center
Mon 07:06:43 PM 46.7436 -89.8200 92° East 527 606 43,000  Level Minneapolis Center
Mon 07:07:45 PM 46.7350 -89.6064 93° East 525 604 43,000  Level Minneapolis Center
Mon 07:08:47 PM 46.7275 -89.3917 93° East 526 605 43,000  Level Minneapolis Center
Mon 07:09:49 PM 46.7156 -89.1356 94° East 524 603 43,000  Level Minneapolis Center
Mon 07:10:51 PM 46.7075 -88.9219 93° East 524 603 43,000  Level Minneapolis Center
Mon 07:12:05 PM 46.6961 -88.6708 94° East 516 594 43,000  Level Minneapolis Center
Mon 07:13:07 PM 46.6861 -88.4600 94° East 519 597 43,000  Level Minneapolis Center
Mon 07:14:09 PM 46.6750 -88.2508 94° East 518 596 43,000  Level Minneapolis Center
Mon 07:15:11 PM 46.6653 -88.0414 94° East 518 596 43,000  Level Minneapolis Center
Mon 07:16:13 PM 46.6533 -87.8339 95° East 516 594 43,000  Level Minneapolis Center
Mon 07:17:29 PM 46.6406 -87.5972 94° East 515 593 43,000  Level Minneapolis Center
Mon 07:18:31 PM 46.6267 -87.3489 95° East 513 590 43,000  Level Minneapolis Center
Mon 07:19:33 PM 46.6150 -87.1389 95° East 518 596 43,000  Level Minneapolis Center
Mon 07:20:35 PM 46.6019 -86.9325 95° East 516 594 43,000  Level Minneapolis Center
Mon 07:21:37 PM 46.5867 -86.6825 95° East 517 595 43,000  Level Minneapolis Center
Mon 07:22:39 PM 46.5742 -86.4744 95° East 517 595 43,000  Level Minneapolis Center
Mon 07:23:41 PM 46.5597 -86.2681 96° East 515 593 43,000  Level Minneapolis Center
Mon 07:24:43 PM 46.5458 -86.0606 95° East 515 593 43,000  Level Minneapolis Center
Mon 07:25:44 PM 46.5319 -85.8564 96° East 512 589 43,000  Level Minneapolis Center
Mon 07:26:46 PM 46.5167 -85.6508 96° East 512 589 43,000  Level Minneapolis Center
Mon 07:27:48 PM 46.5017 -85.4461 96° East 511 588 43,000  Level Minneapolis Center
Mon 07:28:50 PM 46.4831 -85.2172 97° East 511 588 43,000  Level Minneapolis Center
Mon 07:30:11 PM 46.4500 -84.9333 99° East 510 587 43,000  Level Toronto Center
Mon 07:31:11 PM 46.4333 -84.7167 96° East 520 598 43,000  Level Toronto Center
Mon 07:32:11 PM 46.4167 -84.5000 96° East 510 587 43,000  Level Toronto Center
Mon 07:33:11 PM 46.4000 -84.3000 97° East 530 610 43,000  Level Toronto Center
Mon 07:34:11 PM 46.4000 -84.0833 90° East 510 587 43,000  Level Toronto Center
Mon 07:35:11 PM 46.4000 -83.8833 90° East 510 587 43,000  Level Toronto Center
Mon 07:36:11 PM 46.4167 -83.7000 82° East 510 587 43,000  Level Toronto Center
Mon 07:37:11 PM 46.4000 -83.4833 96° East 510 587 43,000  Level Toronto Center
Mon 07:38:11 PM 46.4167 -83.2833 83° East 510 587 43,000  Level Toronto Center
Mon 07:39:11 PM 46.4000 -83.0667 96° East 520 598 43,000  Level Toronto Center
Mon 07:40:11 PM 46.4000 -82.8500 90° East 520 598 43,000  Level Toronto Center
Mon 07:41:11 PM 46.4167 -82.6333 84° East 520 598 43,000  Level Toronto Center
Mon 07:42:11 PM 46.4000 -82.4333 97° East 520 598 43,000  Level Toronto Center
Mon 07:43:11 PM 46.4000 -82.2167 90° East 520 598 43,000  Level Toronto Center
Mon 07:44:11 PM 46.4000 -82.0333 90° East 520 598 43,000  Level Toronto Center
Mon 07:45:11 PM 46.4000 -81.8000 90° East 520 598 43,000  Level Toronto Center
Mon 07:46:11 PM 46.4000 -81.5833 90° East 520 598 43,000  Level Toronto Center
Mon 07:47:11 PM 46.4000 -81.4000 90° East 520 598 43,000  Level Toronto Center
Mon 07:48:11 PM 46.3833 -81.1833 96° East 520 598 43,000  Level Toronto Center
Mon 07:49:11 PM 46.3500 -80.9833 104° East 520 598 43,000  Level Toronto Center
Mon 07:50:11 PM 46.2833 -80.8167 120° Southeast 520 598 43,000  Level Toronto Center
Mon 07:51:11 PM 46.2000 -80.6500 126° Southeast 520 598 43,000  Level Toronto Center
Mon 07:52:11 PM 46.1167 -80.4500 121° Southeast 520 598 43,000  Level Toronto Center
Mon 07:53:11 PM 46.0500 -80.2833 120° Southeast 530 610 43,000  Level Toronto Center
Mon 07:54:11 PM 45.9667 -80.1167 126° Southeast 530 610 43,000  Level Toronto Center
Mon 07:55:11 PM 45.8833 -79.9167 121° Southeast 540 621 43,000  Level Toronto Center
Mon 07:56:11 PM 45.8000 -79.7500 126° Southeast 540 621 43,000  Level Toronto Center
Mon 07:57:11 PM 45.7167 -79.5667 123° Southeast 540 621 43,000  Level Toronto Center
Mon 07:58:11 PM 45.6333 -79.4000 126° Southeast 540 621 43,000  Level Toronto Center
Mon 08:00:11 PM 45.4667 -79.0333 123° Southeast 540 621 43,000  Level Toronto Center
Mon 08:01:11 PM 45.3833 -78.8500 123° Southeast 540 621 43,000  Level Toronto Center
Mon 08:02:11 PM 45.3000 -78.6833 125° Southeast 530 610 43,000  Level Toronto Center
Mon 08:03:11 PM 45.2167 -78.5167 125° Southeast 530 610 43,000  Level Toronto Center
Mon 08:04:11 PM 45.1167 -78.3333 128° Southeast 530 610 43,000  Level Toronto Center
Mon 08:05:11 PM 45.0333 -78.1667 125° Southeast 530 610 43,000  Level Toronto Center
Mon 08:06:11 PM 44.9667 -77.9833 117° Southeast 530 610 43,000  Level Toronto Center
Mon 08:07:11 PM 44.8833 -77.8167 125° Southeast 540 621 43,000  Level Toronto Center
Mon 08:08:11 PM 44.8000 -77.6667 128° Southeast 540 621 43,000  Level Toronto Center
Mon 08:09:11 PM 44.7167 -77.4667 120° Southeast 540 621 43,000  Level Toronto Center
Mon 08:10:11 PM 44.6167 -77.3167 133° Southeast 540 621 43,000  Level Toronto Center
Mon 08:11:11 PM 44.5333 -77.1333 122° Southeast 540 621 43,000 -350 Level Toronto Center
Mon 08:12:11 PM 44.4500 -76.9667 125° Southeast 530 610 42,300 -1,400 Descending Toronto Center
Mon 08:13:11 PM 44.3667 -76.7833 122° Southeast 520 598 40,200 -2,100 Descending Toronto Center
Mon 08:14:11 PM 44.2667 -76.6500 136° Southeast 520 598 38,100 -2,200 Descending Toronto Center
Mon 08:15:11 PM 44.2000 -76.4667 117° Southeast 510 587 35,800 -2,250 Descending Toronto Center
Mon 08:16:11 PM 44.1167 -76.3167 128° Southeast 510 587 33,600 -2,300 Descending Toronto Center
Mon 08:17:11 PM 44.0167 -76.1833 136° Southeast 530 610 31,200 -2,600 Descending Toronto Center
Mon 08:18:11 PM 43.8667 -76.0667 151° Southeast 550 633 28,400 -2,100 Descending Toronto Center
Mon 08:19:11 PM 43.7333 -75.9833 156° South 540 621 27,000 -656 Descending Toronto Center
Mon 08:20:19 PM 43.6214 -75.9050 153° Southeast 514 592 27,000 -600 Level Boston Center
Mon 08:22:11 PM 43.3833 -75.6833 146° Southeast 510 587 25,200 -1,326 Descending Toronto Center
Mon 08:23:11 PM 43.2500 -75.6000 156° South 480 552 23,200 -2,050 Descending Toronto Center
Mon 08:24:11 PM 43.1333 -75.5167 152° Southeast 470 541 21,100 -2,000 Descending Toronto Center
Mon 08:25:11 PM 43.0333 -75.4333 149° Southeast 480 552 19,200 -1,550 Descending Toronto Center
Mon 08:26:11 PM 42.9167 -75.3500 152° Southeast 470 541 18,000 -600 Descending Toronto Center
Mon 08:27:11 PM 42.8167 -75.2667 149° Southeast 440 506 18,000 -300 Level Toronto Center
Mon 08:28:11 PM 42.7167 -75.1833 149° Southeast 450 518 17,400 -471 Descending Toronto Center
Mon 08:29:31 PM 42.5753 -75.1186 161° South 450 518 16,900 -214 Descending Boston Center
Mon 08:30:31 PM 42.4644 -75.0408 153° Southeast 450 518 16,900  Level Boston Center
Mon 08:31:31 PM 42.3578 -74.9603 151° Southeast 444 511 16,900  Level Boston Center
Mon 08:32:31 PM 42.2492 -74.8831 152° Southeast 444 511 16,900  Level Boston Center
Mon 08:33:31 PM 42.1381 -74.8117 155° Southeast 444 511 16,900 -450 Level Boston Center
Mon 08:34:31 PM 42.0075 -74.7703 167° South 438 504 16,000 -1,500 Descending Boston Center
Mon 08:35:31 PM 41.9144 -74.7417 167° South 411 473 13,900 -2,100 Descending Boston Center
Mon 08:36:31 PM 41.8128 -74.7131 168° South 361 415 11,800 -1,833 Descending Boston Center
Mon 08:38:31 PM 41.6469 -74.6625 167° South 304 350 8,400 -1,633 Descending Boston Center
Mon 08:39:31 PM 41.5786 -74.6408 167° South 290 334 6,900 -1,200 Descending Boston Center
Mon 08:40:31 PM 41.5000 -74.6186 168° South 275 316 6,000 -320 Descending Boston Center
Mon 08:42:20 PM 41.3667 -74.6167 179° South 268 308 6,000  Level New York TRACON
Mon 08:43:14 PM 41.3000 -74.6167 180° South 272 313 6,000 -789 Level New York TRACON
Mon 08:44:14 PM 41.2333 -74.5667 151° Southeast 277 319 4,500 -1,000 Descending New York TRACON
Mon 08:45:14 PM 41.1667 -74.5167 151° Southeast 277 319 4,000 -600 Descending New York TRACON
Mon 08:46:14 PM 41.1000 -74.4667 151° Southeast 269 310 3,300 -500 Descending New York TRACON
Mon 08:47:14 PM 41.0333 -74.4333 159° South 252 290 3,000 -190 Descending New York TRACON
Mon 08:48:20 PM 40.9667 -74.3833 150° Southeast 221 254 2,900 -476 Descending New York TRACON
Mon 08:49:20 PM 40.9167 -74.3500 153° Southeast 209 241 2,000 -550 Descending New York TRACON
Mon 08:50:20 PM 40.8667 -74.3500 180° South 181 208 1,800 -500 Descending New York TRACON
Mon 08:51:20 PM 40.8333 -74.3833 217° Southwest 138 159 1,000 -800 Descending New York TRACON
Mon 08:53:00 PM 40.7993 -74.4149 185° South  Level Estimated

Login

Don't have an account? Register now (free) for customized features, flight alerts, and more!